Concordia, Kansas
Current Conditions -  °F | °C
As of 10:55 PM on Thursday 30 Oct 2014 (Local Time) from KCNK Reporting Station
Clear Clear  
Wind Chill: 37°   Ceiling: Unl
Heat Index: 44°   Visibility: 10mi
Dew Point: 37°   Wind: 14mph
Humidity: 76%   Direction: 360°N
Pressure: 30.35"   Gusts: 21mph
Location:  39.57°N, 97.66°W
Report Text: KCNK 310355Z AUTO 36012G18KT 10SM CLR 07/03 A3035 RMK AO2 PK WND 36029/0302 SLP279 T00670028
Loading
Personal Weather Stations






























Interactive Weather Map
Tropical Storm Tracking
New forecast layout! Learn more

10-Day Weather Forecast

Advertisements
Track Severe Weather on mobile